Time;durP1;ratioP1;P1;durP2;ratioP2;P2;SDS_P1;SDS_P2;PMS_P1;PMS_P2;Temp;Humidity;BMP_temperature;BMP_pressure;BME280_temperature;BME280_humidity;BME280_pressure;Samples;Min_cycle;Max_cycle;Signal;HPM_P1;HPM_P2
2021/09/27 00:00:43;;;;;;;1.30;1.20;;;17.10;88.90;;;;;;5116851;28;20035;-73
2021/09/27 00:03:09;;;;;;;1.40;1.30;;;17.10;88.90;;;;;;5117175;28;20084;-73
2021/09/27 00:05:35;;;;;;;1.55;1.02;;;17.10;88.80;;;;;;5116483;28;20023;-73
2021/09/27 00:08:01;;;;;;;1.13;0.90;;;17.10;88.90;;;;;;5116804;28;20479;-74
2021/09/27 00:10:35;;;;;;;0.90;0.90;;;17.10;88.90;;;;;;5116354;28;20055;-72
2021/09/27 00:13:01;;;;;;;1.25;1.15;;;17.10;88.90;;;;;;5116827;28;20047;-74
2021/09/27 00:15:32;;;;;;;1.20;1.10;;;17.00;88.80;;;;;;5116686;28;20153;-73
2021/09/27 00:17:57;;;;;;;1.45;1.15;;;17.00;88.80;;;;;;5116768;28;20069;-73
2021/09/27 00:20:23;;;;;;;1.10;1.00;;;17.00;88.90;;;;;;5115933;28;20560;-73
2021/09/27 00:22:50;;;;;;;0.80;0.80;;;17.00;88.90;;;;;;5116678;28;20035;-74
2021/09/27 00:25:19;;;;;;;2.13;1.67;;;17.00;88.90;;;;;;5116394;28;20031;-73
2021/09/27 00:27:45;;;;;;;2.35;1.77;;;17.00;88.90;;;;;;5116495;28;20379;-73
2021/09/27 00:30:13;;;;;;;1.58;1.48;;;16.90;88.90;;;;;;5116539;28;20031;-72
2021/09/27 00:32:39;;;;;;;1.88;1.05;;;16.90;88.90;;;;;;5116297;28;20027;-73
2021/09/27 00:35:06;;;;;;;1.20;1.10;;;16.90;88.90;;;;;;5115815;28;20026;-72
2021/09/27 00:37:31;;;;;;;1.02;1.00;;;16.90;89.00;;;;;;5116259;28;20034;-73
2021/09/27 00:40:00;;;;;;;2.33;1.33;;;16.90;89.00;;;;;;5116183;28;20031;-72
2021/09/27 00:42:25;;;;;;;1.23;1.10;;;16.90;89.00;;;;;;5116039;28;20032;-72
2021/09/27 00:44:51;;;;;;;1.92;1.42;;;16.90;89.10;;;;;;5116232;28;20194;-72
2021/09/27 00:47:17;;;;;;;1.40;1.30;;;16.90;89.10;;;;;;5116131;28;20019;-72
2021/09/27 00:49:43;;;;;;;1.40;1.30;;;16.90;89.00;;;;;;5115423;28;20035;-72
2021/09/27 00:52:09;;;;;;;1.00;0.90;;;16.90;89.10;;;;;;5116067;28;20031;-73
2021/09/27 00:54:36;;;;;;;1.65;1.40;;;16.90;89.10;;;;;;5115906;28;20468;-72
2021/09/27 00:57:12;;;;;;;1.33;1.20;;;16.90;89.10;;;;;;5115901;28;20027;-73
2021/09/27 00:59:41;;;;;;;1.67;1.35;;;16.90;89.10;;;;;;5115799;28;20387;-72
2021/09/27 01:02:07;;;;;;;1.38;1.27;;;16.80;89.10;;;;;;5115821;28;20020;-73
2021/09/27 01:04:34;;;;;;;1.40;1.30;;;16.80;89.10;;;;;;5115234;28;20028;-73
2021/09/27 01:07:16;;;;;;;1.65;1.40;;;16.90;89.10;;;;;;5115717;28;20107;-72
2021/09/27 01:10:15;;;;;;;1.30;1.05;;;16.90;89.00;;;;;;5115552;28;20058;-73
2021/09/27 01:13:14;;;;;;;2.28;1.20;;;16.90;89.20;;;;;;5115385;28;20027;-73
2021/09/27 01:15:55;;;;;;;1.05;1.00;;;16.80;89.00;;;;;;5115685;28;20020;-72
2021/09/27 01:18:50;;;;;;;2.00;1.50;;;16.80;89.10;;;;;;5115012;28;20024;-73
2021/09/27 01:21:44;;;;;;;1.13;1.00;;;16.80;89.00;;;;;;5097083;28;20476;-73
2021/09/27 01:24:47;;;;;;;0.90;0.88;;;16.80;89.00;;;;;;5115472;28;20024;-72
2021/09/27 01:27:24;;;;;;;1.42;1.10;;;16.80;89.00;;;;;;5115330;28;20114;-73
2021/09/27 01:30:21;;;;;;;1.08;0.98;;;16.80;89.20;;;;;;5115211;28;20019;-73
2021/09/27 01:32:48;;;;;;;0.93;0.88;;;16.80;89.30;;;;;;5114766;28;20054;-72
2021/09/27 01:35:38;;;;;;;1.17;0.98;;;16.70;89.30;;;;;;5115312;28;20019;-72
2021/09/27 01:38:18;;;;;;;1.10;0.93;;;16.80;89.20;;;;;;5096866;28;20388;-73
2021/09/27 01:41:02;;;;;;;1.30;1.00;;;16.70;89.10;;;;;;5115164;28;20067;-72
2021/09/27 01:43:39;;;;;;;2.00;1.33;;;16.70;89.30;;;;;;5096673;28;20034;-72
2021/09/27 01:46:11;;;;;;;1.38;1.27;;;16.70;89.40;;;;;;5114600;28;20030;-73
2021/09/27 01:49:11;;;;;;;1.27;1.00;;;16.70;89.40;;;;;;5114891;28;20035;-72
2021/09/27 01:51:41;;;;;;;1.65;1.55;;;16.60;89.30;;;;;;5114742;28;20028;-73
2021/09/27 01:54:14;;;;;;;1.48;1.38;;;16.60;90.00;;;;;;5114860;28;20024;-73
2021/09/27 01:57:08;;;;;;;1.77;1.45;;;16.60;89.30;;;;;;5114517;28;20072;-72
2021/09/27 02:00:01;;;;;;;1.55;1.23;;;16.60;89.40;;;;;;5096326;28;20029;-73
2021/09/27 02:02:45;;;;;;;1.63;1.33;;;16.50;89.40;;;;;;5113998;28;20495;-72
2021/09/27 02:05:23;;;;;;;1.00;0.98;;;16.50;89.50;;;;;;5114501;28;20535;-72
2021/09/27 02:07:59;;;;;;;1.23;1.13;;;16.50;89.60;;;;;;5114438;28;20019;-73
2021/09/27 02:10:34;;;;;;;0.73;0.73;;;16.50;89.60;;;;;;5113838;28;20492;-72
2021/09/27 02:13:10;;;;;;;1.30;1.20;;;16.50;89.50;;;;;;5114236;28;20035;-72
2021/09/27 02:15:48;;;;;;;3.92;1.67;;;16.50;89.40;;;;;;5113837;28;20024;-72
2021/09/27 02:18:26;;;;;;;2.17;1.65;;;16.50;89.50;;;;;;5114333;28;20098;-72
2021/09/27 02:21:02;;;;;;;1.13;1.00;;;16.50;89.50;;;;;;5114229;28;20065;-73
2021/09/27 02:23:33;;;;;;;1.10;1.00;;;16.40;89.50;;;;;;5114205;28;20026;-73
2021/09/27 02:25:59;;;;;;;1.05;0.98;;;16.50;89.60;;;;;;5114071;28;20020;-74
2021/09/27 02:28:25;;;;;;;1.50;1.05;;;16.40;89.50;;;;;;5095854;28;20110;-73
2021/09/27 02:31:00;;;;;;;1.00;0.90;;;16.40;89.50;;;;;;5113602;28;20106;-73
2021/09/27 02:33:44;;;;;;;1.23;1.08;;;16.40;89.50;;;;;;5114107;28;20028;-73
2021/09/27 02:36:23;;;;;;;1.30;1.00;;;16.40;89.60;;;;;;5114021;28;20035;-73
2021/09/27 02:38:58;;;;;;;2.15;1.40;;;16.40;89.60;;;;;;5095500;28;20385;-73
2021/09/27 02:41:41;;;;;;;1.15;1.05;;;16.40;89.60;;;;;;5113994;28;20043;-72
2021/09/27 02:44:10;;;;;;;1.15;0.90;;;16.40;89.50;;;;;;5113439;28;20024;-72
2021/09/27 02:46:42;;;;;;;1.20;1.00;;;16.40;89.60;;;;;;5113890;28;20111;-73
2021/09/27 02:49:12;;;;;;;1.60;1.20;;;16.40;89.60;;;;;;5113879;28;20028;-74
2021/09/27 02:51:44;;;;;;;1.02;1.02;;;16.40;89.70;;;;;;5113652;28;20498;-72
2021/09/27 02:54:11;;;;;;;1.63;1.45;;;16.40;89.60;;;;;;5095597;28;20007;-73
2021/09/27 02:56:51;;;;;;;1.45;1.13;;;16.40;89.60;;;;;;5113838;28;20027;-73
2021/09/27 02:59:31;;;;;;;;;;;16.40;89.60;;;;;;5095549;28;20122;-73
2021/09/27 03:02:20;;;;;;;1.67;1.13;;;16.30;89.60;;;;;;5113694;28;19904;-72
2021/09/27 03:05:09;;;;;;;1.15;1.02;;;16.40;89.70;;;;;;5113635;28;20030;-73
2021/09/27 03:07:53;;;;;;;1.07;0.90;;;16.30;89.60;;;;;;5113747;28;20159;-74
2021/09/27 03:10:52;;;;;;;1.13;0.95;;;16.40;89.60;;;;;;5113527;28;20067;-72
2021/09/27 03:13:36;;;;;;;1.35;1.25;;;16.40;89.50;;;;;;5113253;28;20026;-72
2021/09/27 03:16:20;;;;;;;1.15;1.05;;;16.40;89.60;;;;;;5113452;28;20052;-73
2021/09/27 03:18:46;;;;;;;0.73;0.73;;;16.40;89.70;;;;;;5113540;28;20098;-72
2021/09/27 03:21:53;;;;;;;1.17;1.08;;;16.30;89.80;;;;;;5114522;28;20558;-73
2021/09/27 03:24:36;;;;;;;0.82;0.82;;;16.30;89.60;;;;;;5034811;28;20034;-73
2021/09/27 03:27:30;;;;;;;0.98;0.90;;;16.30;89.80;;;;;;5034807;28;20059;-73
2021/09/27 03:30:11;;;;;;;1.63;1.15;;;16.30;89.70;;;;;;5034840;28;20064;-72
2021/09/27 03:33:12;;;;;;;1.63;1.02;;;16.30;89.80;;;;;;5034789;28;20077;-73
2021/09/27 03:35:52;;;;;;;1.60;1.17;;;16.30;89.80;;;;;;5035217;28;20033;-73
2021/09/27 03:38:42;;;;;;;1.20;1.10;;;16.30;89.80;;;;;;5018164;28;20071;-72
2021/09/27 03:41:27;;;;;;;2.67;1.13;;;16.30;90.10;;;;;;5034633;28;20088;-74
2021/09/27 03:44:11;;;;;;;1.65;1.23;;;16.30;89.90;;;;;;5034147;28;20521;-73
2021/09/27 03:46:45;;;;;;;1.05;0.85;;;16.30;89.90;;;;;;5034681;28;20040;-73
2021/09/27 03:49:19;;;;;;;1.90;1.08;;;16.20;89.80;;;;;;5034507;28;20026;-74
2021/09/27 03:51:52;;;;;;;1.42;1.33;;;16.20;89.80;;;;;;5034485;28;20507;-72
2021/09/27 03:54:31;;;;;;;1.20;0.88;;;16.30;89.90;;;;;;5034179;28;20030;-73
2021/09/27 03:57:05;;;;;;;0.98;0.93;;;16.20;89.80;;;;;;5033989;28;20103;-73
2021/09/27 03:59:50;;;;;;;1.70;1.13;;;16.20;89.80;;;;;;5041449;28;20069;-73
2021/09/27 04:02:28;;;;;;;2.38;1.30;;;16.20;89.70;;;;;;5117090;28;20471;-73
2021/09/27 04:05:12;;;;;;;1.40;0.77;;;16.20;89.70;;;;;;5117019;28;20034;-72
2021/09/27 04:08:14;;;;;;;1.00;0.90;;;16.30;89.60;;;;;;5116719;28;20102;-73
2021/09/27 04:11:01;;;;;;;1.02;1.00;;;16.30;89.60;;;;;;5116685;28;20074;-72
2021/09/27 04:13:37;;;;;;;1.65;1.10;;;16.30;89.60;;;;;;5116932;28;20108;-73
2021/09/27 04:16:21;;;;;;;1.42;1.15;;;16.40;89.60;;;;;;5116530;28;20020;-74
2021/09/27 04:19:22;;;;;;;1.63;1.30;;;16.40;89.50;;;;;;5116836;28;20035;-73
2021/09/27 04:21:59;;;;;;;1.90;1.30;;;16.50;89.40;;;;;;5116771;28;20027;-73
2021/09/27 04:24:35;;;;;;;1.70;1.30;;;16.60;89.50;;;;;;5116487;28;20030;-73
2021/09/27 04:27:14;;;;;;;1.38;1.05;;;16.60;89.40;;;;;;5097885;28;20446;-74
2021/09/27 04:30:00;;;;;;;1.70;1.27;;;16.70;89.40;;;;;;5116561;28;20031;-73
2021/09/27 04:32:51;;;;;;;1.98;1.30;;;16.70;89.30;;;;;;5097654;28;20027;-73
2021/09/27 04:35:49;;;;;;;1.88;1.35;;;16.70;89.30;;;;;;5116367;28;20023;-73
2021/09/27 04:38:16;;;;;;;1.30;1.13;;;16.80;89.30;;;;;;5105105;28;20043;-74
2021/09/27 04:41:08;;;;;;;1.25;1.15;;;16.80;89.40;;;;;;5097418;28;20120;-73
2021/09/27 04:44:00;;;;;;;1.90;1.45;;;16.90;89.40;;;;;;5115958;28;20026;-73
2021/09/27 04:46:46;;;;;;;1.25;1.15;;;16.90;89.50;;;;;;5116194;28;20024;-72
2021/09/27 04:49:49;;;;;;;0.90;0.85;;;16.90;90.00;;;;;;5116595;28;20016;-73
2021/09/27 04:52:38;;;;;;;1.92;1.60;;;17.00;89.40;;;;;;5115877;28;20481;-72
2021/09/27 04:55:42;;;;;;;2.17;1.60;;;17.00;89.30;;;;;;5115649;28;20387;-73
2021/09/27 04:58:48;;;;;;;1.33;0.93;;;17.00;89.30;;;;;;5115970;28;20031;-73
2021/09/27 05:01:24;;;;;;;1.42;1.10;;;17.00;89.40;;;;;;5101210;28;20502;-74
2021/09/27 05:04:36;;;;;;;0.98;0.82;;;17.00;89.50;;;;;;5115731;28;20039;-74
2021/09/27 05:07:40;;;;;;;1.88;1.05;;;17.00;89.40;;;;;;5033226;28;20025;-73
2021/09/27 05:10:24;;;;;;;1.15;1.05;;;17.10;89.40;;;;;;5048940;28;20133;-73
2021/09/27 05:13:12;;;;;;;1.38;1.27;;;17.00;89.40;;;;;;5033086;28;20042;-73
2021/09/27 05:15:54;;;;;;;0.70;0.70;;;17.00;89.30;;;;;;5033140;28;20025;-73
2021/09/27 05:18:47;;;;;;;1.10;0.95;;;17.00;89.40;;;;;;5033109;28;20109;-73
2021/09/27 05:21:45;;;;;;;1.27;1.17;;;17.00;89.40;;;;;;5032690;28;20045;-74
2021/09/27 05:24:17;;;;;;;1.48;1.38;;;16.90;89.50;;;;;;5032449;28;20052;-72
2021/09/27 05:27:11;;;;;;;1.67;1.15;;;16.90;89.60;;;;;;5032703;28;20065;-72
2021/09/27 05:30:01;;;;;;;2.13;1.75;;;17.00;89.70;;;;;;5032656;28;20053;-73
2021/09/27 05:32:38;;;;;;;1.13;1.02;;;16.90;89.60;;;;;;5032437;28;20056;-73
2021/09/27 05:35:24;;;;;;;1.95;1.20;;;16.80;89.70;;;;;;5032623;28;20057;-73
2021/09/27 05:37:57;;;;;;;1.45;1.20;;;16.80;89.80;;;;;;5074334;28;20089;-72
2021/09/27 05:40:27;;;;;;;1.42;1.30;;;16.80;89.80;;;;;;5114874;28;20027;-73
2021/09/27 05:42:53;;;;;;;2.25;1.10;;;16.70;89.70;;;;;;5114901;28;20016;-73
2021/09/27 05:45:25;;;;;;;1.20;1.10;;;16.70;89.80;;;;;;5114264;28;20034;-74
2021/09/27 05:48:03;;;;;;;0.95;0.95;;;16.70;89.80;;;;;;5114973;28;20026;-74
2021/09/27 05:50:34;;;;;;;0.60;0.60;;;16.80;89.80;;;;;;5114879;28;20490;-74
2021/09/27 05:53:10;;;;;;;1.58;1.25;;;16.70;89.80;;;;;;5096132;28;20026;-74
2021/09/27 05:55:39;;;;;;;1.02;0.90;;;16.80;89.80;;;;;;5114897;28;20058;-74
2021/09/27 05:58:12;;;;;;;2.05;1.48;;;16.80;89.70;;;;;;5114645;28;20081;-74
2021/09/27 06:00:48;;;;;;;1.52;1.25;;;16.80;89.70;;;;;;5114613;28;20055;-74
2021/09/27 06:03:32;;;;;;;1.90;1.40;;;16.90;89.60;;;;;;5114785;28;20015;-72
2021/09/27 06:06:16;;;;;;;2.35;1.35;;;16.90;89.50;;;;;;5096212;28;20035;-76
2021/09/27 06:09:08;;;;;;;1.73;1.50;;;16.90;89.50;;;;;;5114009;28;20472;-73
2021/09/27 06:11:58;;;;;;;1.27;1.17;;;17.00;89.40;;;;;;5094201;28;20105;-74
2021/09/27 06:14:25;;;;;;;1.35;1.10;;;17.00;89.30;;;;;;5075853;28;20545;-74
2021/09/27 06:17:16;;;;;;;2.65;1.48;;;17.10;89.40;;;;;;5093897;28;20384;-74
2021/09/27 06:19:55;;;;;;;1.60;1.30;;;17.10;89.30;;;;;;5093945;28;20020;-75
2021/09/27 06:22:39;;;;;;;;;;;17.10;89.40;;;;;;5094000;28;20145;-72
2021/09/27 06:25:25;;;;;;;1.42;0.90;;;17.10;89.30;;;;;;5093858;28;19904;-73
2021/09/27 06:28:28;;;;;;;1.85;1.27;;;17.10;89.30;;;;;;5075670;28;20016;-73
2021/09/27 06:31:02;;;;;;;1.50;1.40;;;17.20;89.20;;;;;;5093836;28;20140;-73
2021/09/27 06:34:20;;;;;;;1.42;1.20;;;17.20;89.40;;;;;;5093641;28;20034;-73
2021/09/27 06:36:47;;;;;;;1.40;1.30;;;17.20;89.20;;;;;;5075258;28;20370;-74
2021/09/27 06:39:20;;;;;;;1.63;1.33;;;17.20;89.30;;;;;;5075368;28;20016;-75
2021/09/27 06:41:49;;;;;;;2.03;1.50;;;17.20;89.20;;;;;;5093578;28;20502;-74
2021/09/27 06:44:15;;;;;;;;;;;17.20;89.30;;;;;;5094165;28;20028;-74
2021/09/27 06:46:42;;;;;;;1.75;1.50;;;17.20;89.20;;;;;;5093582;28;19949;-74
2021/09/27 06:49:09;;;;;;;1.60;1.48;;;17.20;89.40;;;;;;5093580;28;20020;-75
2021/09/27 06:51:41;;;;;;;1.88;1.40;;;17.30;89.30;;;;;;5092909;28;20024;-73
2021/09/27 06:54:07;;;;;;;1.60;1.35;;;17.30;89.20;;;;;;5093313;28;20020;-75
2021/09/27 06:56:33;;;;;;;1.38;1.27;;;17.40;89.30;;;;;;5093259;28;20380;-74
2021/09/27 06:58:58;;;;;;;2.20;1.70;;;17.40;89.30;;;;;;5093344;28;20028;-75
2021/09/27 07:01:24;;;;;;;1.92;1.38;;;17.40;89.30;;;;;;5093425;28;20484;-74
2021/09/27 07:03:49;;;;;;;1.80;1.70;;;17.40;89.30;;;;;;5075118;28;20024;-75
2021/09/27 07:06:15;;;;;;;3.13;2.05;;;17.50;89.40;;;;;;5092778;28;20035;-74
2021/09/27 07:08:41;;;;;;;2.47;1.83;;;17.50;89.30;;;;;;5093326;28;20024;-73
2021/09/27 07:11:06;;;;;;;1.63;1.50;;;17.50;89.30;;;;;;5110414;28;20496;-74
2021/09/27 07:13:32;;;;;;;1.90;1.70;;;17.50;89.20;;;;;;5113485;28;20028;-74
2021/09/27 07:15:57;;;;;;;1.27;1.17;;;17.60;89.30;;;;;;5113623;28;20525;-74
2021/09/27 07:18:23;;;;;;;2.63;1.90;;;17.70;89.20;;;;;;5095357;28;20012;-75
2021/09/27 07:20:49;;;;;;;1.33;1.20;;;17.80;89.10;;;;;;5112971;28;20047;-73
2021/09/27 07:23:14;;;;;;;1.60;1.50;;;17.90;88.90;;;;;;5113462;28;20099;-74
2021/09/27 07:25:40;;;;;;;2.35;1.58;;;18.00;88.90;;;;;;5113303;28;20464;-74
2021/09/27 07:28:06;;;;;;;1.45;1.27;;;18.00;88.80;;;;;;5095188;28;20027;-74
2021/09/27 07:30:33;;;;;;;1.92;1.50;;;18.10;88.80;;;;;;5113490;28;20027;-75
2021/09/27 07:32:59;;;;;;;1.95;1.63;;;18.20;88.80;;;;;;5113499;28;20027;-74
2021/09/27 07:35:27;;;;;;;1.98;1.70;;;18.20;88.80;;;;;;5113094;28;20020;-74
2021/09/27 07:37:53;;;;;;;2.28;1.50;;;18.30;88.80;;;;;;5113209;28;20087;-74
2021/09/27 07:40:22;;;;;;;2.45;1.60;;;18.40;88.70;;;;;;5113200;28;20032;-74
2021/09/27 07:42:49;;;;;;;1.75;1.65;;;18.50;88.70;;;;;;5115336;28;20096;-74
2021/09/27 07:45:17;;;;;;;2.88;1.70;;;18.50;88.70;;;;;;5095994;28;20023;-74
2021/09/27 07:47:42;;;;;;;1.92;1.48;;;18.60;88.70;;;;;;5095023;28;20016;-75
2021/09/27 07:50:10;;;;;;;1.25;1.15;;;18.60;88.70;;;;;;5112777;28;20069;-74
2021/09/27 07:52:36;;;;;;;2.33;1.77;;;18.70;88.80;;;;;;5113317;28;20012;-74
2021/09/27 07:55:01;;;;;;;2.28;1.90;;;18.70;88.80;;;;;;5113367;28;20467;-74
2021/09/27 07:57:30;;;;;;;2.17;1.70;;;18.70;88.80;;;;;;5113168;28;20016;-74
2021/09/27 07:59:55;;;;;;;2.30;1.60;;;18.80;88.90;;;;;;5113107;28;20032;-75
2021/09/27 08:02:21;;;;;;;1.40;1.30;;;18.80;88.90;;;;;;5113113;28;20023;-74
2021/09/27 08:04:47;;;;;;;2.97;2.22;;;18.80;88.80;;;;;;5094516;28;20392;-74
2021/09/27 08:07:13;;;;;;;2.05;1.63;;;18.80;88.80;;;;;;5114145;28;20107;-75
2021/09/27 08:09:39;;;;;;;2.10;1.90;;;18.80;88.90;;;;;;5098440;28;20055;-74
2021/09/27 08:12:05;;;;;;;2.45;1.60;;;18.80;89.00;;;;;;5116840;28;20027;-73
2021/09/27 08:14:31;;;;;;;2.83;1.95;;;18.80;89.00;;;;;;5116752;28;20023;-75
2021/09/27 08:16:59;;;;;;;2.92;2.10;;;18.90;88.90;;;;;;5116706;28;20098;-73
2021/09/27 08:19:25;;;;;;;2.22;1.60;;;18.90;88.90;;;;;;5116153;28;20028;-74
2021/09/27 08:21:54;;;;;;;2.13;1.83;;;19.00;88.90;;;;;;5116676;28;20042;-74
2021/09/27 08:24:20;;;;;;;2.53;1.73;;;19.10;88.70;;;;;;5116579;28;20020;-73
2021/09/27 08:26:46;;;;;;;2.22;1.67;;;19.10;88.70;;;;;;5116432;28;20024;-73
2021/09/27 08:29:12;;;;;;;2.60;2.15;;;19.20;88.60;;;;;;5116503;28;20375;-74
2021/09/27 08:31:40;;;;;;;2.50;1.73;;;19.30;88.50;;;;;;5116486;28;20028;-73
2021/09/27 08:34:06;;;;;;;2.65;1.73;;;19.40;88.40;;;;;;5116008;28;20466;-73
2021/09/27 08:36:31;;;;;;;2.10;1.60;;;19.60;88.30;;;;;;5116204;28;20103;-73
2021/09/27 08:38:57;;;;;;;2.40;1.80;;;19.60;88.10;;;;;;5116238;28;20367;-73
2021/09/27 08:41:25;;;;;;;1.63;1.52;;;19.80;88.10;;;;;;5116212;28;20115;-74
2021/09/27 08:44:02;;;;;;;2.03;1.52;;;19.90;87.90;;;;;;5116274;28;20027;-74
2021/09/27 08:46:42;;;;;;;2.17;1.70;;;19.90;87.80;;;;;;5115841;28;20102;-74
2021/09/27 08:49:35;;;;;;;1.95;1.73;;;19.90;87.90;;;;;;5097737;28;20020;-74
2021/09/27 08:52:01;;;;;;;2.15;1.67;;;19.90;88.00;;;;;;5116234;28;20059;-75
2021/09/27 08:54:29;;;;;;;2.50;1.70;;;19.80;88.30;;;;;;5115977;28;20464;-73
2021/09/27 08:57:09;;;;;;;2.13;1.80;;;19.80;88.30;;;;;;5116048;28;20043;-74
2021/09/27 08:59:53;;;;;;;2.42;1.80;;;19.90;88.10;;;;;;5115908;28;20035;-73
2021/09/27 09:02:31;;;;;;;3.00;2.03;;;20.00;88.00;;;;;;5115345;28;20055;-74
2021/09/27 09:05:23;;;;;;;1.92;1.73;;;20.10;88.00;;;;;;5115828;28;20053;-73
2021/09/27 09:07:58;;;;;;;1.98;1.55;;;20.20;87.80;;;;;;5115810;28;20028;-74
2021/09/27 09:10:57;;;;;;;2.17;1.58;;;20.20;87.80;;;;;;5115559;28;20150;-73
2021/09/27 09:13:39;;;;;;;2.05;1.80;;;20.10;87.80;;;;;;5097348;28;20360;-74
2021/09/27 09:16:08;;;;;;;3.03;1.77;;;20.10;88.00;;;;;;5115213;28;20020;-75
2021/09/27 09:18:56;;;;;;;2.38;1.95;;;20.00;88.10;;;;;;5097205;28;20019;-74
2021/09/27 09:21:39;;;;;;;1.90;1.43;;;19.90;88.20;;;;;;5115441;28;20487;-73
2021/09/27 09:24:09;;;;;;;2.03;1.80;;;19.90;88.30;;;;;;5115435;28;20031;-73
2021/09/27 09:26:43;;;;;;;2.13;1.75;;;19.90;88.40;;;;;;5115278;28;20016;-73
2021/09/27 09:29:10;;;;;;;2.90;2.00;;;19.90;88.30;;;;;;5115475;28;20016;-73
2021/09/27 09:31:44;;;;;;;2.30;1.70;;;20.00;88.20;;;;;;5114714;28;20076;-74
2021/09/27 09:34:19;;;;;;;2.20;1.65;;;20.10;88.00;;;;;;5115059;28;20031;-73
2021/09/27 09:36:47;;;;;;;3.13;2.00;;;20.10;87.90;;;;;;5115161;28;20027;-73
2021/09/27 09:39:26;;;;;;;2.13;1.80;;;20.10;87.90;;;;;;5115073;28;20053;-72
2021/09/27 09:42:02;;;;;;;2.30;1.58;;;20.10;87.90;;;;;;5115004;28;20757;-73
2021/09/27 09:44:42;;;;;;;2.55;2.05;;;20.10;88.10;;;;;;5114414;28;20387;-74
2021/09/27 09:47:28;;;;;;;2.00;1.63;;;20.20;88.00;;;;;;5096614;28;20076;-75
2021/09/27 09:50:06;;;;;;;2.05;1.50;;;20.40;87.70;;;;;;5114927;28;20034;-76
2021/09/27 09:52:42;;;;;;;1.45;1.35;;;20.50;87.50;;;;;;5096562;28;20384;-75
2021/09/27 09:55:16;;;;;;;2.25;1.70;;;20.70;87.10;;;;;;5115061;28;20034;-76
2021/09/27 09:57:54;;;;;;;1.95;1.75;;;20.90;86.80;;;;;;5114818;28;20060;-75
2021/09/27 10:00:38;;;;;;;1.98;1.77;;;20.90;86.70;;;;;;5114284;28;20084;-76
2021/09/27 10:03:05;;;;;;;2.35;2.15;;;21.00;86.70;;;;;;5096295;28;20092;-77
2021/09/27 10:05:48;;;;;;;2.00;1.67;;;21.00;86.80;;;;;;5114792;28;20028;-77
2021/09/27 10:08:20;;;;;;;1.88;1.50;;;21.00;86.80;;;;;;5114508;28;20047;-75
2021/09/27 10:10:55;;;;;;;1.67;1.45;;;21.10;86.80;;;;;;5114260;28;20055;-75
2021/09/27 10:13:33;;;;;;;1.83;1.42;;;21.00;86.70;;;;;;5114218;28;20043;-74
2021/09/27 10:16:04;;;;;;;1.50;1.27;;;21.10;86.80;;;;;;5114415;28;20020;-77
2021/09/27 10:18:37;;;;;;;1.25;1.10;;;21.10;86.80;;;;;;5114586;28;20020;-75
2021/09/27 10:21:22;;;;;;;1.75;1.60;;;21.10;86.80;;;;;;5114250;28;20391;-76
2021/09/27 10:23:51;;;;;;;1.30;1.20;;;21.10;86.80;;;;;;5114272;28;20020;-76
2021/09/27 10:26:26;;;;;;;2.03;1.77;;;21.00;86.80;;;;;;5114324;28;20524;-77
2021/09/27 10:28:55;;;;;;;1.65;1.33;;;21.00;87.00;;;;;;5113537;28;20110;-77
2021/09/27 10:31:26;;;;;;;1.48;1.38;;;20.80;87.20;;;;;;5113778;28;20020;-76
2021/09/27 10:34:01;;;;;;;2.13;1.92;;;20.70;87.50;;;;;;5114068;28;20042;-76
2021/09/27 10:36:34;;;;;;;1.30;1.17;;;20.60;87.60;;;;;;5114236;28;20083;-76
2021/09/27 10:39:00;;;;;;;1.85;1.35;;;20.50;87.50;;;;;;5114003;28;20468;-75
2021/09/27 10:41:37;;;;;;;2.83;1.65;;;20.50;87.60;;;;;;5113906;28;20110;-77
2021/09/27 10:44:16;;;;;;;2.15;1.33;;;20.50;87.50;;;;;;5114075;28;20019;-75
2021/09/27 10:46:46;;;;;;;1.73;1.33;;;20.50;87.60;;;;;;5113797;28;20093;-75
2021/09/27 10:49:31;;;;;;;1.90;1.20;;;20.40;87.50;;;;;;5113815;28;20023;-76
2021/09/27 10:52:14;;;;;;;1.23;1.20;;;20.40;87.50;;;;;;5113828;28;20492;-77
2021/09/27 10:54:53;;;;;;;1.00;1.00;;;20.40;87.50;;;;;;5095645;28;20016;-77
2021/09/27 10:57:21;;;;;;;0.95;0.95;;;20.40;87.50;;;;;;5113416;28;20085;-76
2021/09/27 11:00:00;;;;;;;1.23;1.13;;;20.40;87.50;;;;;;5113674;28;20032;-77
2021/09/27 11:02:39;;;;;;;0.82;0.82;;;20.40;87.30;;;;;;5114222;28;20023;-76
2021/09/27 11:05:36;;;;;;;0.88;0.82;;;20.50;87.30;;;;;;5113720;28;20375;-77
2021/09/27 11:08:08;;;;;;;0.93;0.85;;;20.50;87.10;;;;;;5113708;28;20059;-77
2021/09/27 11:10:52;;;;;;;1.15;1.00;;;20.60;87.00;;;;;;5113452;28;20052;-77
2021/09/27 11:13:39;;;;;;;1.00;0.90;;;20.70;86.90;;;;;;5095015;28;20621;-77
2021/09/27 11:16:20;;;;;;;1.10;1.00;;;20.80;86.70;;;;;;5113455;28;20024;-77
2021/09/27 11:18:53;;;;;;;1.02;0.98;;;20.80;86.60;;;;;;5113540;28;20129;-75
2021/09/27 11:21:25;;;;;;;1.63;0.93;;;20.80;86.50;;;;;;5113475;28;20092;-76
2021/09/27 11:24:21;;;;;;;1.38;0.90;;;20.80;86.60;;;;;;5113633;28;20019;-77
2021/09/27 11:27:10;;;;;;;0.88;0.88;;;20.90;86.50;;;;;;5094814;28;20027;-76
2021/09/27 11:29:36;;;;;;;;;;;20.90;86.50;;;;;;5095654;28;20489;-76
2021/09/27 11:32:25;;;;;;;0.68;0.68;;;20.80;86.70;;;;;;5113645;28;19946;-76
2021/09/27 11:34:55;;;;;;;0.70;0.70;;;20.80;86.60;;;;;;5113412;28;20027;-77
2021/09/27 11:37:29;;;;;;;0.60;0.60;;;20.90;86.60;;;;;;5113482;28;20074;-77
2021/09/27 11:40:00;;;;;;;0.70;0.70;;;21.00;86.50;;;;;;5113221;28;20019;-77
2021/09/27 11:42:36;;;;;;;1.23;1.10;;;21.10;86.40;;;;;;5114495;28;20027;-75
2021/09/27 11:45:09;;;;;;;0.80;0.80;;;21.20;86.10;;;;;;5117274;28;20020;-76
2021/09/27 11:47:41;;;;;;;0.80;0.80;;;21.30;86.00;;;;;;5117401;28;20356;-72
2021/09/27 11:50:32;;;;;;;1.23;1.13;;;21.30;85.80;;;;;;5117120;28;20056;-76
2021/09/27 11:53:11;;;;;;;1.05;0.98;;;21.40;85.80;;;;;;5098793;28;20047;-73
2021/09/27 11:55:40;;;;;;;0.95;0.90;;;21.50;85.60;;;;;;5116686;28;20019;-73
2021/09/27 11:58:12;;;;;;;1.42;0.95;;;21.50;85.60;;;;;;5117088;28;20020;-76
2021/09/27 12:00:47;;;;;;;0.82;0.82;;;21.50;85.50;;;;;;5098703;28;20036;-74
2021/09/27 12:03:21;;;;;;;1.02;0.93;;;21.50;85.60;;;;;;5116910;28;20075;-74
2021/09/27 12:06:11;;;;;;;1.23;1.13;;;21.50;85.40;;;;;;5117185;28;20467;-77
2021/09/27 12:09:07;;;;;;;0.73;0.73;;;21.50;85.40;;;;;;5117294;28;20023;-75
2021/09/27 12:11:51;;;;;;;0.85;0.85;;;21.40;86.30;;;;;;5087472;28;20055;-75
2021/09/27 12:14:24;;;;;;;0.75;0.70;;;21.30;85.60;;;;;;5116953;28;20041;-74
2021/09/27 12:16:53;;;;;;;1.05;0.90;;;21.30;85.60;;;;;;5116808;28;20034;-75
2021/09/27 12:19:33;;;;;;;0.90;0.57;;;21.20;85.70;;;;;;5116393;28;20024;-74
2021/09/27 12:22:06;;;;;;;0.50;0.50;;;21.20;85.70;;;;;;5098661;28;20084;-75
2021/09/27 12:24:41;;;;;;;0.70;0.60;;;21.20;85.70;;;;;;5116136;28;20061;-76
2021/09/27 12:27:12;;;;;;;0.60;0.60;;;21.30;85.60;;;;;;5116772;28;20027;-75
2021/09/27 12:29:54;;;;;;;0.52;0.52;;;21.30;85.40;;;;;;5116489;28;20027;-75
2021/09/27 12:32:36;;;;;;;0.57;0.55;;;21.30;85.40;;;;;;5116230;28;20024;-74
2021/09/27 12:35:29;;;;;;;0.70;0.70;;;21.30;85.30;;;;;;5116217;28;20031;-75
2021/09/27 12:37:57;;;;;;;0.70;0.70;;;21.30;85.30;;;;;;5108090;28;20130;-76
2021/09/27 12:40:51;;;;;;;0.63;0.63;;;21.30;85.20;;;;;;5115617;28;20119;-74
2021/09/27 12:43:23;;;;;;;0.63;0.60;;;21.50;85.00;;;;;;5084722;28;20027;-74
2021/09/27 12:45:53;;;;;;;0.50;0.50;;;21.60;84.80;;;;;;5116113;28;20031;-74
2021/09/27 12:48:28;;;;;;;0.60;0.60;;;21.70;84.60;;;;;;5116199;28;20019;-74
2021/09/27 12:51:23;;;;;;;0.73;0.52;;;21.80;84.40;;;;;;5116527;28;20092;-74
2021/09/27 12:53:58;;;;;;;0.40;0.40;;;21.80;84.20;;;;;;5089901;28;20037;-76
2021/09/27 12:56:25;;;;;;;0.57;0.50;;;21.80;84.10;;;;;;5115777;28;20052;-75
2021/09/27 12:59:00;;;;;;;0.55;0.55;;;21.80;84.10;;;;;;5115924;28;20023;-75
2021/09/27 13:01:28;;;;;;;0.60;0.60;;;21.80;84.10;;;;;;5115830;28;20031;-76
2021/09/27 13:04:05;;;;;;;0.80;0.80;;;21.80;84.20;;;;;;5116027;28;20023;-75
2021/09/27 13:06:34;;;;;;;0.30;0.30;;;21.80;84.10;;;;;;5097421;28;20023;-75
2021/09/27 13:09:28;;;;;;;0.70;0.40;;;21.70;84.30;;;;;;5115187;28;20467;-74
2021/09/27 13:12:21;;;;;;;1.48;0.85;;;21.70;84.40;;;;;;5112983;28;20043;-76
2021/09/27 13:14:54;;;;;;;0.82;0.80;;;21.60;84.40;;;;;;5115657;28;20115;-74
2021/09/27 13:17:26;;;;;;;0.43;0.43;;;21.50;84.50;;;;;;5115527;28;20016;-75
2021/09/27 13:19:56;;;;;;;0.50;0.50;;;21.30;84.60;;;;;;5115382;28;20114;-75
2021/09/27 13:22:30;;;;;;;0.70;0.70;;;21.30;84.90;;;;;;5115032;28;20012;-75
2021/09/27 13:25:06;;;;;;;0.77;0.70;;;21.20;84.90;;;;;;5115349;28;20016;-76
2021/09/27 13:27:42;;;;;;;0.50;0.50;;;21.10;85.20;;;;;;5115362;28;20023;-76
2021/09/27 13:30:13;;;;;;;0.60;0.60;;;20.90;85.50;;;;;;5097365;28;20030;-75
2021/09/27 13:32:48;;;;;;;0.80;0.80;;;20.70;85.90;;;;;;5115184;28;20039;-76
2021/09/27 13:35:20;;;;;;;0.82;0.82;;;20.50;86.20;;;;;;5115350;28;20020;-76
2021/09/27 13:37:52;;;;;;;1.40;0.73;;;20.40;86.50;;;;;;5114792;28;20019;-76